createdAt,value
2018-06-29T00:00:08.899Z,11.15
2018-06-29T00:02:37.874Z,11.33
2018-06-29T00:05:07.966Z,10.68
2018-06-29T00:07:36.875Z,11.08
2018-06-29T00:10:06.487Z,10.72
2018-06-29T00:12:35.457Z,11.45
2018-06-29T00:15:04.503Z,11.68
2018-06-29T00:17:33.491Z,11.18
2018-06-29T00:20:02.384Z,11.00
2018-06-29T00:22:31.318Z,11.22
2018-06-29T00:25:00.691Z,11.53
2018-06-29T00:27:29.666Z,11.05
2018-06-29T00:29:58.560Z,10.98
2018-06-29T00:32:27.539Z,10.50
2018-06-29T00:34:56.494Z,12.13
2018-06-29T00:37:25.426Z,11.35
2018-06-29T00:39:54.364Z,12.25
2018-06-29T00:42:23.815Z,11.05
2018-06-29T00:44:52.761Z,12.30
2018-06-29T00:47:21.680Z,12.20
2018-06-29T00:49:50.670Z,11.05
2018-06-29T00:52:19.636Z,11.30
2018-06-29T00:54:48.594Z,10.63
2018-06-29T00:57:17.530Z,11.97
2018-06-29T00:59:46.457Z,11.95
2018-06-29T01:02:15.353Z,12.30
2018-06-29T01:04:44.279Z,11.15
2018-06-29T01:07:13.175Z,11.60
2018-06-29T01:09:42.495Z,11.78
2018-06-29T01:12:11.439Z,11.45
2018-06-29T01:14:39.957Z,11.55
2018-06-29T01:17:09.496Z,12.65
2018-06-29T01:19:38.556Z,12.70
2018-06-29T01:22:07.542Z,12.50
2018-06-29T01:24:36.467Z,12.05
2018-06-29T01:27:05.480Z,11.78
2018-06-29T01:29:34.500Z,11.48
2018-06-29T01:32:03.523Z,12.58
2018-06-29T01:34:32.446Z,11.70
2018-06-29T01:37:01.410Z,11.90
2018-06-29T01:39:30.316Z,11.65
2018-06-29T01:41:59.292Z,13.05
2018-06-29T01:44:28.204Z,13.25
2018-06-29T01:46:57.185Z,11.85
2018-06-29T01:49:26.139Z,14.73
2018-06-29T01:51:55.041Z,13.00
2018-06-29T01:54:24.017Z,12.82
2018-06-29T01:56:53.033Z,12.93
2018-06-29T01:59:21.958Z,11.73
2018-06-29T02:01:51.213Z,12.33
2018-06-29T02:04:20.236Z,12.82
2018-06-29T02:06:49.591Z,12.13
2018-06-29T02:09:18.566Z,12.82
2018-06-29T02:11:47.495Z,12.13
2018-06-29T02:14:16.422Z,13.03
2018-06-29T02:16:45.347Z,13.35
2018-06-29T02:19:14.240Z,13.45
2018-06-29T02:21:43.187Z,12.43
2018-06-29T02:24:12.094Z,12.73
2018-06-29T02:26:41.018Z,11.22
2018-06-29T02:29:09.954Z,12.10
2018-06-29T02:31:39.006Z,13.95
2018-06-29T02:34:07.919Z,12.40
2018-06-29T02:36:36.843Z,12.07
2018-06-29T02:39:09.999Z,11.65
2018-06-29T02:41:38.996Z,10.75
2018-06-29T02:44:07.942Z,10.72
2018-06-29T02:46:37.016Z,10.05
2018-06-29T02:49:06.019Z,10.60
2018-06-29T02:51:35.356Z,11.83
2018-06-29T02:54:04.854Z,10.25
2018-06-29T02:56:33.977Z,10.40
2018-06-29T02:59:02.938Z,10.78
2018-06-29T03:01:31.874Z,9.98
2018-06-29T03:04:00.862Z,10.30
2018-06-29T03:06:29.801Z,10.85
2018-06-29T03:08:59.164Z,10.88
2018-06-29T03:11:28.084Z,11.30
2018-06-29T03:13:57.034Z,10.80
2018-06-29T03:16:25.931Z,11.28
2018-06-29T03:18:54.855Z,9.58
2018-06-29T03:21:23.826Z,10.35
2018-06-29T03:23:52.727Z,10.45
2018-06-29T03:26:22.190Z,10.63
2018-06-29T03:28:51.147Z,9.83
2018-06-29T03:31:20.112Z,9.63
2018-06-29T03:33:49.033Z,8.73
2018-06-29T03:36:17.973Z,10.18
2018-06-29T03:38:46.958Z,9.40
2018-06-29T03:41:15.907Z,9.33
2018-06-29T03:43:44.827Z,8.40
2018-06-29T03:46:13.806Z,8.88
2018-06-29T03:48:42.710Z,8.85
2018-06-29T03:51:11.634Z,9.40
2018-06-29T03:53:41.029Z,9.50
2018-06-29T03:56:09.966Z,8.88
2018-06-29T03:58:38.986Z,8.20
2018-06-29T04:01:07.971Z,8.60
2018-06-29T04:03:36.986Z,9.35
2018-06-29T04:06:06.479Z,9.63
2018-06-29T04:08:35.419Z,9.50
2018-06-29T04:11:04.674Z,8.30
2018-06-29T04:13:33.632Z,8.58
2018-06-29T04:16:02.528Z,8.63
2018-06-29T04:18:31.508Z,8.35
2018-06-29T04:21:00.487Z,7.42
2018-06-29T04:23:29.972Z,8.00
2018-06-29T04:25:58.903Z,8.90
2018-06-29T04:28:27.940Z,9.05
2018-06-29T04:30:56.999Z,7.90
2018-06-29T04:33:25.909Z,8.25
2018-06-29T04:35:54.867Z,8.18
2018-06-29T04:38:23.762Z,8.33
2018-06-29T04:40:52.695Z,8.13
2018-06-29T04:43:21.871Z,7.42
2018-06-29T04:45:50.869Z,8.00
2018-06-29T04:48:19.778Z,7.80
2018-06-29T04:50:48.699Z,9.33
2018-06-29T04:53:17.614Z,8.53
2018-06-29T04:55:46.534Z,8.20
2018-06-29T04:58:15.904Z,8.78
2018-06-29T05:00:44.793Z,8.55
2018-06-29T05:03:13.713Z,8.08
2018-06-29T05:05:42.838Z,8.03
2018-06-29T05:08:11.781Z,8.25
2018-06-29T05:10:40.688Z,10.30
2018-06-29T05:13:09.739Z,10.08
2018-06-29T05:15:38.724Z,9.55
2018-06-29T05:18:07.968Z,8.40
2018-06-29T05:20:36.886Z,8.55
2018-06-29T05:23:05.998Z,8.63
2018-06-29T05:25:35.179Z,8.68
2018-06-29T05:28:04.134Z,8.75
2018-06-29T05:30:33.568Z,9.70
2018-06-29T05:33:02.502Z,8.65
2018-06-29T05:35:31.576Z,8.20
2018-06-29T05:38:00.474Z,8.00
2018-06-29T05:40:29.432Z,9.58
2018-06-29T05:42:58.322Z,8.25
2018-06-29T05:45:27.653Z,8.75
2018-06-29T05:47:56.570Z,8.65
2018-06-29T05:50:25.543Z,7.50
2018-06-29T05:52:54.519Z,8.75
2018-06-29T05:55:23.439Z,9.48
2018-06-29T05:57:52.379Z,9.13
2018-06-29T06:00:21.300Z,8.60
2018-06-29T06:02:50.257Z,9.00
2018-06-29T06:05:19.160Z,9.45
2018-06-29T06:07:48.094Z,8.10
2018-06-29T06:10:16.998Z,7.03
2018-06-29T06:12:45.933Z,7.92
2018-06-29T06:15:15.323Z,6.37
2018-06-29T06:17:44.294Z,7.10
2018-06-29T06:20:15.457Z,6.42
2018-06-29T06:22:44.518Z,6.55
2018-06-29T06:25:13.500Z,6.93
2018-06-29T06:27:42.499Z,6.50
2018-06-29T06:30:11.476Z,7.17
2018-06-29T06:32:40.391Z,6.43
2018-06-29T06:35:09.854Z,6.40
2018-06-29T06:37:38.765Z,7.20
2018-06-29T06:40:07.808Z,6.50
2018-06-29T06:42:37.338Z,7.30
2018-06-29T06:45:06.661Z,6.20
2018-06-29T06:47:35.721Z,7.07
2018-06-29T06:50:04.696Z,5.70
2018-06-29T06:52:33.690Z,6.40
2018-06-29T06:55:02.568Z,6.27
2018-06-29T06:57:31.493Z,6.00
2018-06-29T07:00:00.451Z,6.50
2018-06-29T07:02:29.446Z,6.40
2018-06-29T07:04:58.388Z,6.27
2018-06-29T07:07:27.335Z,6.60
2018-06-29T07:09:56.299Z,5.93
2018-06-29T07:12:25.283Z,5.90
2018-06-29T07:14:54.258Z,6.27
2018-06-29T07:17:23.170Z,6.47
2018-06-29T07:19:52.128Z,5.20
2018-06-29T07:22:21.042Z,6.47
2018-06-29T07:24:50.034Z,6.37
2018-06-29T07:27:19.575Z,5.97
2018-06-29T07:29:48.581Z,6.10
2018-06-29T07:32:17.545Z,4.70
2018-06-29T07:34:46.462Z,5.83
2018-06-29T07:37:15.402Z,5.30
2018-06-29T07:39:44.292Z,5.43
2018-06-29T07:42:13.237Z,5.50
2018-06-29T07:44:42.146Z,4.90
2018-06-29T07:47:11.055Z,4.57
2018-06-29T07:49:40.514Z,5.20
2018-06-29T07:52:09.812Z,5.20
2018-06-29T07:54:38.707Z,5.13
2018-06-29T07:57:07.620Z,5.90
2018-06-29T07:59:36.668Z,5.80
2018-06-29T08:02:05.670Z,4.87
2018-06-29T08:04:34.619Z,5.43
2018-06-29T08:07:03.523Z,5.23
2018-06-29T08:09:32.429Z,5.33
2018-06-29T08:12:01.467Z,4.43
2018-06-29T08:14:30.406Z,4.80
2018-06-29T08:16:59.414Z,4.37
2018-06-29T08:19:28.355Z,5.13
2018-06-29T08:21:57.387Z,4.60
2018-06-29T08:24:27.280Z,5.07
2018-06-29T08:26:56.198Z,4.50
2018-06-29T08:29:25.171Z,4.50
2018-06-29T08:31:54.137Z,4.77
2018-06-29T08:34:23.031Z,4.50
2018-06-29T08:36:51.968Z,5.20
2018-06-29T08:39:20.899Z,5.33
2018-06-29T08:41:50.479Z,4.97
2018-06-29T08:44:19.444Z,4.37
2018-06-29T08:46:48.386Z,3.97
2018-06-29T08:49:17.346Z,4.00
2018-06-29T08:51:46.299Z,3.63
2018-06-29T08:54:15.183Z,4.13
2018-06-29T08:56:44.165Z,4.17
2018-06-29T08:59:13.068Z,4.40
2018-06-29T09:01:41.986Z,4.07
2018-06-29T09:04:10.952Z,4.30
2018-06-29T09:06:39.848Z,3.93
2018-06-29T09:09:09.791Z,3.63
2018-06-29T09:11:38.995Z,4.20
2018-06-29T09:14:08.443Z,3.70
2018-06-29T09:16:37.431Z,4.40
2018-06-29T09:19:06.461Z,4.60
2018-06-29T09:21:35.468Z,3.80
2018-06-29T09:24:04.477Z,4.53
2018-06-29T09:26:33.387Z,4.17
2018-06-29T09:29:02.334Z,3.70
2018-06-29T09:31:31.428Z,3.30
2018-06-29T09:34:00.328Z,3.43
2018-06-29T09:36:29.387Z,4.20
2018-06-29T09:38:58.663Z,3.40
2018-06-29T09:41:28.017Z,3.87
2018-06-29T09:43:56.926Z,4.87
2018-06-29T09:46:25.867Z,3.90
2018-06-29T09:48:54.839Z,3.65
2018-06-29T09:51:23.805Z,3.87
2018-06-29T09:53:52.708Z,3.70
2018-06-29T09:56:21.675Z,3.50
2018-06-29T09:58:50.574Z,3.85
2018-06-29T10:01:19.652Z,3.40
2018-06-29T10:03:48.531Z,4.22
2018-06-29T10:06:17.447Z,3.60
2018-06-29T10:08:46.371Z,4.15
2018-06-29T10:11:15.307Z,4.05
2018-06-29T10:13:44.233Z,4.42
2018-06-29T10:16:13.124Z,3.83
2018-06-29T10:18:42.059Z,3.77
2018-06-29T10:21:10.590Z,4.35
2018-06-29T10:23:40.024Z,3.25
2018-06-29T10:26:08.936Z,3.90
2018-06-29T10:28:37.537Z,4.03
2018-06-29T10:31:07.098Z,4.08
2018-06-29T10:33:36.007Z,3.75
2018-06-29T10:36:05.391Z,3.67
2018-06-29T10:38:34.277Z,3.80
2018-06-29T10:41:03.200Z,6.50
2018-06-29T10:43:32.082Z,4.30
2018-06-29T10:46:01.035Z,8.35
2018-06-29T10:48:29.941Z,10.98
2018-06-29T10:50:58.896Z,7.60
2018-06-29T10:53:28.303Z,14.70
2018-06-29T10:55:57.609Z,9.30
2018-06-29T10:58:26.484Z,4.65
2018-06-29T11:00:55.466Z,3.60
2018-06-29T11:03:24.895Z,5.05
2018-06-29T11:05:53.801Z,3.35
2018-06-29T11:08:22.761Z,10.38
2018-06-29T11:10:51.792Z,9.30
2018-06-29T11:13:20.766Z,8.10
2018-06-29T11:15:49.680Z,3.65
2018-06-29T11:18:18.634Z,3.30
2018-06-29T11:20:47.567Z,3.02
2018-06-29T11:23:16.515Z,3.52
2018-06-29T11:25:45.413Z,4.10
2018-06-29T11:28:14.381Z,4.40
2018-06-29T11:30:43.339Z,3.30
2018-06-29T11:33:12.250Z,8.00
2018-06-29T11:35:41.178Z,9.05
2018-06-29T11:38:09.702Z,3.90
2018-06-29T11:40:38.700Z,5.12
2018-06-29T11:43:07.624Z,3.42
2018-06-29T11:45:36.621Z,6.80
2018-06-29T11:48:06.172Z,2.98
2018-06-29T11:50:35.126Z,3.35
2018-06-29T11:53:04.109Z,3.17
2018-06-29T11:55:33.043Z,4.20
2018-06-29T11:58:02.482Z,8.98
2018-06-29T12:00:31.498Z,5.60
2018-06-29T12:03:00.415Z,3.55
2018-06-29T12:05:29.343Z,3.10
2018-06-29T12:07:58.323Z,4.15
2018-06-29T12:10:27.219Z,2.80
2018-06-29T12:12:56.150Z,2.40
2018-06-29T12:15:25.035Z,2.47
2018-06-29T12:17:53.970Z,2.35
2018-06-29T12:20:22.881Z,2.77
2018-06-29T12:22:51.843Z,2.50
2018-06-29T12:25:21.366Z,2.33
2018-06-29T12:27:50.293Z,2.90
2018-06-29T12:30:19.203Z,2.62
2018-06-29T12:32:48.188Z,3.20
2018-06-29T12:35:17.085Z,3.75
2018-06-29T12:37:46.336Z,46.13
2018-06-29T12:40:15.428Z,39.98
2018-06-29T12:42:44.395Z,12.13
2018-06-29T12:45:13.363Z,4.05
2018-06-29T12:47:42.264Z,2.58
2018-06-29T12:50:11.234Z,3.00
2018-06-29T12:52:40.535Z,2.45
2018-06-29T12:55:09.587Z,1.82
2018-06-29T12:57:38.483Z,1.92
2018-06-29T13:00:07.030Z,1.67
2018-06-29T13:02:35.976Z,2.58
2018-06-29T13:05:04.994Z,1.95
2018-06-29T13:07:33.913Z,2.10
2018-06-29T13:10:02.802Z,1.60
2018-06-29T13:12:31.836Z,5.70
2018-06-29T13:15:00.726Z,1.45
2018-06-29T13:17:29.744Z,1.77
2018-06-29T13:19:58.624Z,1.60
2018-06-29T13:22:27.535Z,1.95
2018-06-29T13:24:56.490Z,1.60
2018-06-29T13:27:25.442Z,1.67
2018-06-29T13:29:54.355Z,1.60
2018-06-29T13:32:23.399Z,2.00
2018-06-29T13:34:52.367Z,2.98
2018-06-29T13:37:21.786Z,1.60
2018-06-29T13:39:50.743Z,2.87
2018-06-29T13:42:20.510Z,2.52
2018-06-29T13:44:49.451Z,2.27
2018-06-29T13:47:18.364Z,1.98
2018-06-29T13:49:47.288Z,1.65
2018-06-29T13:52:16.325Z,2.02
2018-06-29T13:54:45.262Z,2.40
2018-06-29T13:57:15.339Z,2.00
2018-06-29T13:59:44.318Z,2.35
2018-06-29T14:02:13.272Z,2.40
2018-06-29T14:04:42.160Z,2.58
2018-06-29T14:07:11.104Z,3.05
2018-06-29T14:09:40.059Z,2.60
2018-06-29T14:12:09.030Z,3.10
2018-06-29T14:14:37.963Z,2.12
2018-06-29T14:17:07.473Z,3.20
2018-06-29T14:19:36.445Z,3.02
2018-06-29T14:22:05.380Z,2.80
2018-06-29T14:24:34.318Z,3.05
2018-06-29T14:27:03.324Z,3.05
2018-06-29T14:29:32.245Z,3.15
2018-06-29T14:32:01.199Z,3.02
2018-06-29T14:34:30.111Z,3.05
2018-06-29T14:36:59.038Z,5.03
2018-06-29T14:39:27.974Z,3.00
2018-06-29T14:41:57.362Z,3.45
2018-06-29T14:44:26.307Z,3.37
2018-06-29T14:46:55.223Z,4.15
2018-06-29T14:49:24.682Z,4.12
2018-06-29T14:51:53.670Z,3.40
2018-06-29T14:54:22.596Z,3.87
2018-06-29T14:56:51.571Z,35.08
2018-06-29T14:59:20.093Z,3.20
2018-06-29T15:01:48.994Z,3.30
2018-06-29T15:04:18.043Z,3.65
2018-06-29T15:06:46.946Z,3.17
2018-06-29T15:09:15.850Z,3.45
2018-06-29T15:11:44.783Z,3.60
2018-06-29T15:14:13.689Z,3.05
2018-06-29T15:16:42.679Z,3.60
2018-06-29T15:19:11.595Z,4.05
2018-06-29T15:21:41.064Z,3.17
2018-06-29T15:24:09.974Z,3.30
2018-06-29T15:26:39.570Z,3.50
2018-06-29T15:29:08.449Z,3.55
2018-06-29T15:31:37.109Z,3.40
2018-06-29T15:34:05.982Z,3.37
2018-06-29T15:36:34.933Z,2.90
2018-06-29T15:39:04.446Z,3.45
2018-06-29T15:41:33.329Z,3.20
2018-06-29T15:44:02.259Z,4.53
2018-06-29T15:46:31.171Z,3.50
2018-06-29T15:49:00.174Z,5.17
2018-06-29T15:51:29.111Z,3.10
2018-06-29T15:53:58.075Z,3.72
2018-06-29T15:56:27.431Z,3.20
2018-06-29T15:58:56.409Z,3.45
2018-06-29T16:01:25.868Z,3.75
2018-06-29T16:03:54.828Z,2.85
2018-06-29T16:06:23.741Z,3.15
2018-06-29T16:08:53.092Z,3.50
2018-06-29T16:11:22.500Z,14.25
2018-06-29T16:13:51.418Z,15.65
2018-06-29T16:16:20.344Z,4.10
2018-06-29T16:18:49.839Z,3.45
2018-06-29T16:21:18.774Z,4.12
2018-06-29T16:23:47.706Z,3.98
2018-06-29T16:26:16.642Z,4.58
2018-06-29T16:28:45.611Z,5.33
2018-06-29T16:31:14.577Z,3.27
2018-06-29T16:33:43.536Z,11.93
2018-06-29T16:36:12.479Z,3.40
2018-06-29T16:38:41.732Z,3.33
2018-06-29T16:41:10.653Z,3.52
2018-06-29T16:43:39.571Z,2.92
2018-06-29T16:46:08.656Z,3.70
2018-06-29T16:48:38.743Z,3.05
2018-06-29T16:51:08.631Z,2.90
2018-06-29T16:53:37.618Z,3.35
2018-06-29T16:56:06.549Z,3.40
2018-06-29T16:58:35.583Z,2.95
2018-06-29T17:01:04.490Z,3.90
2018-06-29T17:03:33.423Z,3.85
2018-06-29T17:06:02.355Z,3.35
2018-06-29T17:08:31.895Z,3.87
2018-06-29T17:11:00.783Z,2.92
2018-06-29T17:13:30.142Z,3.87
2018-06-29T17:15:59.122Z,4.85
2018-06-29T17:18:28.036Z,3.27
2018-06-29T17:20:56.994Z,3.90
2018-06-29T17:23:25.895Z,3.58
2018-06-29T17:25:54.794Z,3.55
2018-06-29T17:28:23.839Z,3.77
2018-06-29T17:30:52.794Z,3.05
2018-06-29T17:33:32.048Z,3.25
2018-06-29T17:35:50.698Z,3.30
2018-06-29T17:38:19.609Z,3.70
2018-06-29T17:40:48.639Z,3.98
2018-06-29T17:43:17.499Z,3.58
2018-06-29T17:45:46.450Z,3.65
2018-06-29T17:48:15.372Z,3.87
2018-06-29T17:50:44.465Z,3.60
2018-06-29T17:53:13.630Z,5.28
2018-06-29T17:55:42.729Z,4.33
2018-06-29T17:58:11.916Z,4.40
2018-06-29T18:00:41.019Z,4.60
2018-06-29T18:03:10.199Z,6.30
2018-06-29T18:05:39.449Z,4.20
2018-06-29T18:08:08.717Z,5.08
2018-06-29T18:10:38.495Z,5.05
2018-06-29T18:13:07.911Z,5.10
2018-06-29T18:15:38.015Z,3.90
2018-06-29T18:18:07.151Z,5.65
2018-06-29T18:20:36.970Z,5.95
2018-06-29T18:23:06.155Z,5.22
2018-06-29T18:25:35.367Z,4.70
2018-06-29T18:28:04.600Z,3.90
2018-06-29T18:30:33.821Z,3.92
2018-06-29T18:33:02.974Z,3.92
2018-06-29T18:35:31.894Z,3.60
2018-06-29T18:38:01.080Z,3.37
2018-06-29T18:40:30.321Z,3.50
2018-06-29T18:42:59.461Z,3.70
2018-06-29T18:45:29.222Z,3.90
2018-06-29T18:47:58.478Z,4.45
2018-06-29T18:50:27.778Z,3.98
2018-06-29T18:52:57.502Z,4.40
2018-06-29T18:55:26.659Z,4.25
2018-06-29T18:57:55.710Z,4.12
2018-06-29T19:00:24.843Z,3.60
2018-06-29T19:02:53.950Z,4.67
2018-06-29T19:05:23.715Z,4.42
2018-06-29T19:07:52.857Z,5.42
2018-06-29T19:10:22.160Z,5.58
2018-06-29T19:12:52.018Z,4.25
2018-06-29T19:15:21.205Z,4.10
2018-06-29T19:17:50.478Z,4.55
2018-06-29T19:20:20.272Z,4.03
2018-06-29T19:22:49.415Z,5.17
2018-06-29T19:25:18.576Z,4.53
2018-06-29T19:27:47.752Z,6.05
2018-06-29T19:30:16.978Z,6.20
2018-06-29T19:32:45.892Z,6.35
2018-06-29T19:35:14.976Z,5.75
2018-06-29T19:37:44.840Z,5.05
2018-06-29T19:40:14.223Z,5.30
2018-06-29T19:42:43.884Z,5.75
2018-06-29T19:45:12.897Z,5.95
2018-06-29T19:47:42.043Z,5.78
2018-06-29T19:50:11.203Z,5.10
2018-06-29T19:52:40.329Z,4.53
2018-06-29T19:55:09.603Z,5.15
2018-06-29T19:57:38.917Z,4.60
2018-06-29T20:00:08.322Z,4.78
2018-06-29T20:02:37.638Z,4.70
2018-06-29T20:05:06.843Z,4.83
2018-06-29T20:07:36.084Z,4.45
2018-06-29T20:10:05.489Z,5.08
2018-06-29T20:12:34.545Z,4.90
2018-06-29T20:15:03.777Z,5.05
2018-06-29T20:17:32.955Z,5.42
2018-06-29T20:20:01.883Z,5.70
2018-06-29T20:22:31.120Z,4.30
2018-06-29T20:25:00.294Z,4.97
2018-06-29T20:27:30.123Z,4.17
2018-06-29T20:29:59.378Z,4.47
2018-06-29T20:32:29.316Z,4.35
2018-06-29T20:34:58.496Z,6.45
2018-06-29T20:37:27.626Z,3.90
2018-06-29T20:39:56.887Z,4.08
2018-06-29T20:42:26.317Z,3.98
2018-06-29T20:44:55.783Z,3.42
2018-06-29T20:47:25.001Z,3.90
2018-06-29T20:49:54.170Z,3.70
2018-06-29T20:52:23.294Z,4.42
2018-06-29T20:54:52.458Z,3.85
2018-06-29T20:57:21.365Z,4.65
2018-06-29T20:59:50.267Z,5.20
2018-06-29T21:02:19.909Z,3.87
2018-06-29T21:04:49.205Z,4.25
2018-06-29T21:07:18.096Z,3.58
2018-06-29T21:09:47.217Z,4.00
2018-06-29T21:12:16.367Z,3.83
2018-06-29T21:14:45.768Z,3.83
2018-06-29T21:17:14.914Z,3.70
2018-06-29T21:19:44.209Z,2.85
2018-06-29T21:22:13.513Z,4.42
2018-06-29T21:24:42.732Z,4.33
2018-06-29T21:27:12.847Z,2.95
2018-06-29T21:29:41.795Z,3.55
2018-06-29T21:32:11.196Z,2.70
2018-06-29T21:34:41.146Z,3.40
2018-06-29T21:37:10.254Z,2.90
2018-06-29T21:39:39.587Z,3.00
2018-06-29T21:42:09.123Z,2.90
2018-06-29T21:44:37.819Z,2.85
2018-06-29T21:47:07.163Z,2.30
2018-06-29T21:49:37.289Z,2.33
2018-06-29T21:52:06.420Z,2.10
2018-06-29T21:54:35.723Z,2.40
2018-06-29T21:57:05.056Z,2.50
2018-06-29T21:59:34.626Z,2.72
2018-06-29T22:02:03.826Z,2.25
2018-06-29T22:04:33.599Z,2.87
2018-06-29T22:07:02.819Z,1.70
2018-06-29T22:09:31.965Z,2.33
2018-06-29T22:12:01.182Z,1.70
2018-06-29T22:14:30.318Z,1.95
2018-06-29T22:16:59.463Z,1.70
2018-06-29T22:19:28.321Z,1.72
2018-06-29T22:21:57.562Z,1.50
2018-06-29T22:24:26.918Z,2.10
2018-06-29T22:26:56.069Z,2.17
2018-06-29T22:29:25.183Z,1.87
2018-06-29T22:31:54.554Z,1.30
2018-06-29T22:34:23.778Z,1.27
2018-06-29T22:36:53.036Z,1.12
2018-06-29T22:39:22.187Z,1.25
2018-06-29T22:41:51.455Z,1.15
2018-06-29T22:44:20.649Z,1.50
2018-06-29T22:46:50.069Z,0.90
2018-06-29T22:49:18.959Z,1.50
2018-06-29T22:51:48.646Z,1.57
2018-06-29T22:54:17.940Z,1.80
2018-06-29T22:56:47.171Z,1.42
2018-06-29T22:59:16.227Z,0.95
2018-06-29T23:01:45.877Z,1.60
2018-06-29T23:04:17.325Z,0.90
2018-06-29T23:06:46.687Z,1.42
2018-06-29T23:09:15.968Z,1.30
2018-06-29T23:11:45.354Z,1.10
2018-06-29T23:14:15.027Z,2.12
2018-06-29T23:16:44.162Z,3.15
2018-06-29T23:19:13.373Z,3.55
2018-06-29T23:21:42.774Z,1.42
2018-06-29T23:24:12.003Z,1.75
2018-06-29T23:26:41.168Z,2.00
2018-06-29T23:29:10.712Z,1.70
2018-06-29T23:31:39.951Z,1.80
2018-06-29T23:34:09.176Z,1.50
2018-06-29T23:36:38.334Z,1.52
2018-06-29T23:39:09.161Z,1.35
2018-06-29T23:41:38.415Z,1.50
2018-06-29T23:44:07.784Z,1.25
2018-06-29T23:46:37.186Z,2.40
2018-06-29T23:49:06.487Z,1.27
2018-06-29T23:51:35.676Z,1.15
2018-06-29T23:54:04.919Z,1.50
2018-06-29T23:56:34.082Z,1.35
2018-06-29T23:59:03.473Z,1.40
